createdAt,value
2023-01-05T00:01:56.361Z,97810.03
2023-01-05T00:05:01.858Z,97799.88
2023-01-05T00:08:08.728Z,97771.63
2023-01-05T00:11:34.104Z,97765.03
2023-01-05T00:14:56.123Z,97766.31
2023-01-05T00:18:20.349Z,97758.91
2023-01-05T00:21:42.578Z,97758.00
2023-01-05T00:24:47.938Z,97776.88
2023-01-05T00:27:58.317Z,97753.09
2023-01-05T00:31:04.285Z,97775.53
2023-01-05T00:34:13.375Z,97752.44
2023-01-05T00:37:20.277Z,97751.72
2023-01-05T00:40:26.583Z,97750.28
2023-01-05T00:43:32.173Z,97753.25
2023-01-05T00:46:38.423Z,97722.91
2023-01-05T00:49:46.995Z,97746.63
2023-01-05T00:52:53.775Z,97721.81
2023-01-05T00:56:00.527Z,97734.88
2023-01-05T00:59:07.636Z,97739.69
2023-01-05T01:02:13.989Z,97741.00
2023-01-05T01:05:23.618Z,97721.66
2023-01-05T01:08:29.973Z,97719.59
2023-01-05T01:11:36.745Z,97723.72
2023-01-05T01:14:42.737Z,97725.19
2023-01-05T01:17:49.084Z,97705.06
2023-01-05T01:20:57.275Z,97716.06
2023-01-05T01:24:04.516Z,97697.53
2023-01-05T01:27:09.900Z,97693.88
2023-01-05T01:30:16.393Z,97695.25
2023-01-05T01:33:22.786Z,97680.25
2023-01-05T01:36:31.760Z,97664.31
2023-01-05T01:39:37.702Z,97671.22
2023-01-05T01:42:47.865Z,97644.81
2023-01-05T01:45:53.363Z,97665.59
2023-01-05T01:49:08.674Z,97644.53
2023-01-05T01:52:17.772Z,97644.53
2023-01-05T01:55:25.129Z,97643.03
2023-01-05T01:58:35.593Z,97629.28
2023-01-05T02:01:42.467Z,97627.31
2023-01-05T02:04:49.555Z,97639.28
2023-01-05T02:07:58.983Z,97626.78
2023-01-05T02:11:33.614Z,97635.91
2023-01-05T02:15:00.347Z,97610.19
2023-01-05T02:18:32.170Z,97587.16
2023-01-05T02:21:58.544Z,97607.59
2023-01-05T02:25:44.458Z,97607.28
2023-01-05T02:29:42.958Z,97581.25
2023-01-05T02:33:06.632Z,97589.75
2023-01-05T02:36:28.959Z,97584.19
2023-01-05T02:39:52.262Z,97598.66
2023-01-05T02:43:01.092Z,97564.63
2023-01-05T02:46:07.730Z,97591.50
2023-01-05T02:49:20.925Z,97573.25
2023-01-05T02:52:30.553Z,97556.47
2023-01-05T02:55:48.362Z,97581.03
2023-01-05T02:59:01.396Z,97587.13
2023-01-05T03:02:16.760Z,97583.88
2023-01-05T03:05:35.767Z,97580.00
2023-01-05T03:08:54.389Z,97612.75
2023-01-05T03:12:32.166Z,97619.25
2023-01-05T03:15:43.920Z,97603.72
2023-01-05T03:19:12.103Z,97585.03
2023-01-05T03:22:42.856Z,97578.16
2023-01-05T03:26:10.327Z,97567.94
2023-01-05T03:29:32.225Z,97572.47
2023-01-05T03:33:05.235Z,97579.41
2023-01-05T03:36:19.408Z,97559.47
2023-01-05T03:39:33.152Z,97556.34
2023-01-05T03:42:42.672Z,97552.22
2023-01-05T03:45:56.363Z,97571.22
2023-01-05T03:49:05.248Z,97556.53
2023-01-05T03:52:11.540Z,97540.72
2023-01-05T03:55:22.645Z,97545.34
2023-01-05T03:58:31.677Z,97540.63
2023-01-05T04:01:37.181Z,97517.03
2023-01-05T04:04:43.745Z,97539.34
2023-01-05T04:07:49.812Z,97548.03
2023-01-05T04:10:59.751Z,97542.28
2023-01-05T04:14:05.275Z,97550.25
2023-01-05T04:17:13.476Z,97546.16
2023-01-05T04:20:19.214Z,97567.22
2023-01-05T04:23:25.463Z,97552.44
2023-01-05T04:26:35.999Z,97568.69
2023-01-05T04:29:42.477Z,97568.03
2023-01-05T04:32:47.884Z,97574.72
2023-01-05T04:35:56.685Z,97567.03
2023-01-05T04:39:05.909Z,97567.41
2023-01-05T04:42:18.086Z,97550.19
2023-01-05T04:45:28.101Z,97552.06
2023-01-05T04:48:35.317Z,97561.44
2023-01-05T04:51:42.296Z,97549.50
2023-01-05T04:54:49.209Z,97515.25
2023-01-05T04:57:57.743Z,97523.97
2023-01-05T05:01:04.148Z,97533.59
2023-01-05T05:04:12.143Z,97526.69
2023-01-05T05:07:18.587Z,97519.56
2023-01-05T05:10:24.281Z,97529.38
2023-01-05T05:13:33.910Z,97516.84
2023-01-05T05:16:40.862Z,97493.41
2023-01-05T05:19:48.421Z,97518.06
2023-01-05T05:22:53.936Z,97525.94
2023-01-05T05:26:00.999Z,97526.69
2023-01-05T05:29:09.686Z,97525.22
2023-01-05T05:32:15.921Z,97527.59
2023-01-05T05:35:21.575Z,97510.34
2023-01-05T05:38:27.996Z,97520.53
2023-01-05T05:41:33.412Z,97523.09
2023-01-05T05:44:43.954Z,97537.50
2023-01-05T05:47:49.563Z,97509.09
2023-01-05T05:50:56.025Z,97517.38
2023-01-05T05:54:01.441Z,97508.25
2023-01-05T05:57:07.857Z,97498.81
2023-01-05T06:00:18.433Z,97494.13
2023-01-05T06:03:24.669Z,97493.59
2023-01-05T06:06:30.051Z,97496.94
2023-01-05T06:09:36.317Z,97512.22
2023-01-05T06:12:42.150Z,97505.94
2023-01-05T06:15:52.649Z,97499.03
2023-01-05T06:18:58.114Z,97504.97
2023-01-05T06:22:04.522Z,97504.06
2023-01-05T06:25:11.189Z,97508.31
2023-01-05T06:28:20.378Z,97522.34
2023-01-05T06:31:29.021Z,97541.56
2023-01-05T06:34:35.339Z,97537.75
2023-01-05T06:37:42.553Z,97567.50
2023-01-05T06:40:50.740Z,97573.59
2023-01-05T06:43:56.111Z,97584.03
2023-01-05T06:47:05.682Z,97597.44
2023-01-05T06:50:12.256Z,97602.41
2023-01-05T06:53:18.577Z,97616.06
2023-01-05T06:56:23.928Z,97625.19
2023-01-05T06:59:31.002Z,97605.97
2023-01-05T07:02:39.540Z,97640.50
2023-01-05T07:05:45.959Z,97675.31
2023-01-05T07:08:51.422Z,97664.97
2023-01-05T07:11:57.724Z,97643.38
2023-01-05T07:15:03.245Z,97661.56
2023-01-05T07:18:12.416Z,97634.41
2023-01-05T07:21:17.866Z,97628.53
2023-01-05T07:24:24.154Z,97643.31
2023-01-05T07:27:29.759Z,97617.16
2023-01-05T07:30:36.225Z,97625.53
2023-01-05T07:33:44.359Z,97652.88
2023-01-05T07:36:51.471Z,97648.47
2023-01-05T07:39:57.146Z,97649.88
2023-01-05T07:43:03.545Z,97631.34
2023-01-05T07:46:09.227Z,97627.03
2023-01-05T07:49:18.966Z,97639.72
2023-01-05T07:52:24.364Z,97625.66
2023-01-05T07:55:30.831Z,97621.34
2023-01-05T07:58:38.006Z,97647.59
2023-01-05T08:01:44.440Z,97638.06
2023-01-05T08:04:52.826Z,97637.88
2023-01-05T08:07:59.593Z,97637.13
2023-01-05T08:11:08.599Z,97641.06
2023-01-05T08:14:14.854Z,97642.34
2023-01-05T08:17:20.275Z,97636.56
2023-01-05T08:20:29.324Z,97650.31
2023-01-05T08:23:36.203Z,97641.63
2023-01-05T08:26:42.528Z,97644.97
2023-01-05T08:29:47.903Z,97647.78
2023-01-05T08:32:54.139Z,97646.47
2023-01-05T08:36:02.747Z,97650.22
2023-01-05T08:39:09.769Z,97640.69
2023-01-05T08:42:15.170Z,97641.97
2023-01-05T08:45:23.038Z,97647.03
2023-01-05T08:48:28.620Z,97637.88
2023-01-05T08:51:39.082Z,97644.25
2023-01-05T08:54:44.587Z,97635.25
2023-01-05T08:57:50.889Z,97646.50
2023-01-05T09:00:56.570Z,97642.06
2023-01-05T09:04:02.961Z,97643.22
2023-01-05T09:07:11.225Z,97657.56
2023-01-05T09:10:17.443Z,97644.44
2023-01-05T09:13:22.942Z,97643.28
2023-01-05T09:17:05.287Z,97664.75
2023-01-05T09:19:57.577Z,97657.84
2023-01-05T09:23:06.718Z,97663.44
2023-01-05T09:26:18.897Z,97653.56
2023-01-05T09:29:25.499Z,97665.19
2023-01-05T09:32:30.888Z,97645.75
2023-01-05T09:35:37.137Z,97663.81
2023-01-05T09:38:47.224Z,97650.41
2023-01-05T09:41:59.948Z,97653.25
2023-01-05T09:45:10.252Z,97648.94
2023-01-05T09:48:20.994Z,97647.09
2023-01-05T09:51:28.487Z,97634.94
2023-01-05T09:54:38.003Z,97642.56
2023-01-05T09:57:45.121Z,97661.47
2023-01-05T10:01:10.807Z,97647.94
2023-01-05T10:04:28.405Z,97640.50
2023-01-05T10:07:48.952Z,97640.28
2023-01-05T10:11:24.245Z,97646.22
2023-01-05T10:14:48.477Z,97646.53
2023-01-05T10:17:53.963Z,97635.34
2023-01-05T10:21:19.817Z,97579.00
2023-01-05T10:24:48.710Z,97634.72
2023-01-05T10:28:22.593Z,97635.25
2023-01-05T10:31:50.070Z,97619.00
2023-01-05T10:35:09.084Z,97622.56
2023-01-05T10:38:38.436Z,97622.38
2023-01-05T10:42:03.264Z,97430.47
2023-01-05T10:45:17.089Z,97621.59
2023-01-05T10:48:38.653Z,97620.69
2023-01-05T10:51:48.949Z,97610.84
2023-01-05T10:55:03.677Z,97609.88
2023-01-05T10:58:25.212Z,97601.94
2023-01-05T11:01:35.008Z,97594.81
2023-01-05T11:04:40.905Z,97595.22
2023-01-05T11:07:54.102Z,97609.38
2023-01-05T11:11:04.383Z,97618.63
2023-01-05T11:14:19.812Z,97611.16
2023-01-05T11:17:32.196Z,97621.44
2023-01-05T11:20:38.482Z,97601.72
2023-01-05T11:23:46.879Z,97619.44
2023-01-05T11:26:55.989Z,97630.38
2023-01-05T11:30:25.686Z,97621.94
2023-01-05T11:33:40.591Z,97627.94
2023-01-05T11:36:55.984Z,97626.47
2023-01-05T11:40:05.952Z,97550.88
2023-01-05T11:43:36.084Z,97620.69
2023-01-05T11:46:47.643Z,97617.16
2023-01-05T11:50:09.440Z,97616.50
2023-01-05T11:53:38.803Z,97634.72
2023-01-05T11:56:44.236Z,97627.31
2023-01-05T11:59:51.176Z,97647.22
2023-01-05T12:03:32.511Z,97632.34
2023-01-05T12:07:07.736Z,97634.66
2023-01-05T12:11:01.575Z,97636.66
2023-01-05T12:14:38.273Z,97639.38
2023-01-05T12:18:03.817Z,97657.63
2023-01-05T12:21:26.416Z,97634.56
2023-01-05T12:25:06.385Z,97614.19
2023-01-05T12:28:45.555Z,97614.72
2023-01-05T12:34:00.467Z,97604.56
2023-01-05T12:36:27.276Z,97610.84
2023-01-05T12:40:25.547Z,97618.84
2023-01-05T12:43:54.522Z,97614.00
2023-01-05T12:47:27.523Z,97603.91
2023-01-05T12:50:44.858Z,97596.97
2023-01-05T12:54:02.808Z,97604.50
2023-01-05T12:57:21.792Z,97628.34
2023-01-05T13:00:34.609Z,97625.72
2023-01-05T13:03:54.412Z,97604.81
2023-01-05T13:07:05.407Z,97610.28
2023-01-05T13:10:24.142Z,97666.13
2023-01-05T13:13:41.302Z,97667.31
2023-01-05T13:16:58.732Z,97679.03
2023-01-05T13:20:21.208Z,97690.47
2023-01-05T13:23:34.505Z,97703.38
2023-01-05T13:26:40.827Z,97701.19
2023-01-05T13:29:59.614Z,97726.06
2023-01-05T13:33:45.269Z,97753.75
2023-01-05T13:37:39.478Z,97727.28
2023-01-05T13:41:21.116Z,97804.16
2023-01-05T13:45:02.547Z,97724.03
2023-01-05T13:49:02.945Z,97713.66
2023-01-05T13:52:31.410Z,97722.59
2023-01-05T13:55:48.461Z,97720.31
2023-01-05T13:59:05.548Z,97729.25
2023-01-05T14:02:34.679Z,97730.00
2023-01-05T14:05:54.932Z,97748.38
2023-01-05T14:09:08.268Z,97725.13
2023-01-05T14:12:44.614Z,97730.00
2023-01-05T14:15:50.114Z,97742.13
2023-01-05T14:19:17.021Z,97746.69
2023-01-05T14:22:38.492Z,97751.31
2023-01-05T14:25:52.985Z,97757.78
2023-01-05T14:28:58.499Z,97746.56
2023-01-05T14:32:11.190Z,97731.44
2023-01-05T14:35:37.422Z,97527.88
2023-01-05T14:38:52.713Z,97734.63
2023-01-05T14:42:08.370Z,97719.81
2023-01-05T14:45:32.762Z,97725.38
2023-01-05T14:48:44.397Z,97719.31
2023-01-05T14:52:01.068Z,97718.44
2023-01-05T14:55:37.289Z,97716.94
2023-01-05T14:59:02.725Z,97734.09
2023-01-05T15:02:25.020Z,97732.06
2023-01-05T15:05:35.875Z,97723.84
2023-01-05T15:09:32.267Z,97734.94
2023-01-05T15:13:25.892Z,97724.59
2023-01-05T15:17:18.830Z,97741.00
2023-01-05T15:21:11.817Z,97733.16
2023-01-05T15:25:49.374Z,97744.19
2023-01-05T15:30:02.871Z,97749.84
2023-01-05T15:33:21.039Z,97739.13
2023-01-05T15:36:34.506Z,97775.53
2023-01-05T15:39:52.691Z,97776.22
2023-01-05T15:43:05.488Z,97783.53
2023-01-05T15:46:13.101Z,97761.53
2023-01-05T15:49:30.364Z,97767.38
2023-01-05T15:52:40.972Z,97781.41
2023-01-05T15:55:52.330Z,97779.19
2023-01-05T15:58:58.045Z,97768.03
2023-01-05T16:02:05.204Z,97772.69
2023-01-05T16:05:18.508Z,97781.78
2023-01-05T16:08:25.147Z,97798.59
2023-01-05T16:11:40.866Z,97796.25
2023-01-05T16:14:50.528Z,97813.09
2023-01-05T16:18:01.016Z,97825.25
2023-01-05T16:21:23.803Z,97843.69
2023-01-05T16:24:40.329Z,97862.53
2023-01-05T16:27:58.762Z,97867.69
2023-01-05T16:31:16.361Z,97874.22
2023-01-05T16:34:27.824Z,97865.59
2023-01-05T16:37:33.930Z,97859.94
2023-01-05T16:40:58.466Z,97886.69
2023-01-05T16:44:07.776Z,97882.53
2023-01-05T16:47:14.173Z,97874.19
2023-01-05T16:50:57.438Z,97887.66
2023-01-05T16:54:20.768Z,97890.63
2023-01-05T16:57:45.584Z,97932.50
2023-01-05T17:00:54.860Z,97916.63
2023-01-05T17:04:00.302Z,97903.66
2023-01-05T17:07:06.897Z,97935.94
2023-01-05T17:10:26.240Z,97907.56
2023-01-05T17:13:43.273Z,97916.47
2023-01-05T17:16:51.436Z,97928.09
2023-01-05T17:19:57.749Z,97916.25
2023-01-05T17:23:03.291Z,97924.78
2023-01-05T17:26:14.590Z,97950.03
2023-01-05T17:29:24.773Z,97934.97
2023-01-05T17:32:33.812Z,97943.84
2023-01-05T17:35:39.757Z,97990.13
2023-01-05T17:38:47.336Z,97974.13
2023-01-05T17:41:53.572Z,97976.28
2023-01-05T17:44:59.872Z,97984.25
2023-01-05T17:48:08.372Z,97947.03
2023-01-05T17:51:14.693Z,97964.41
2023-01-05T17:54:20.041Z,97964.09
2023-01-05T17:57:26.719Z,97976.88
2023-01-05T18:00:39.902Z,97978.47
2023-01-05T18:03:49.085Z,97986.13
2023-01-05T18:06:54.531Z,98002.44
2023-01-05T18:10:01.183Z,97995.91
2023-01-05T18:16:16.154Z,98021.88
2023-01-05T18:19:24.409Z,98048.53
2023-01-05T18:25:43.078Z,98034.16
2023-01-05T18:28:49.338Z,98069.03
2023-01-05T18:31:56.340Z,98035.72
2023-01-05T18:35:09.297Z,98049.59
2023-01-05T18:38:16.122Z,98039.31
2023-01-05T18:41:27.394Z,98061.44
2023-01-05T18:44:32.815Z,98068.53
2023-01-05T18:47:39.222Z,98045.06
2023-01-05T18:50:51.313Z,98071.50
2023-01-05T18:53:57.923Z,98080.50
2023-01-05T18:57:03.560Z,98077.03
2023-01-05T19:00:12.126Z,98115.88
2023-01-05T19:03:17.620Z,98073.81
2023-01-05T19:06:29.136Z,98108.88
2023-01-05T19:09:34.709Z,98119.25
2023-01-05T19:12:41.022Z,98125.03
2023-01-05T19:15:46.744Z,98134.34
2023-01-05T19:18:57.279Z,98118.34
2023-01-05T19:22:07.699Z,98111.63
2023-01-05T19:25:14.014Z,98112.13
2023-01-05T19:28:19.493Z,98119.19
2023-01-05T19:31:28.023Z,98122.91
2023-01-05T19:34:33.574Z,98130.53
2023-01-05T19:37:42.881Z,98121.66
2023-01-05T19:40:48.352Z,98138.56
2023-01-05T19:43:57.787Z,98130.97
2023-01-05T19:47:03.231Z,98148.00
2023-01-05T19:50:12.615Z,98179.16
2023-01-05T19:53:20.863Z,98160.56
2023-01-05T19:56:31.487Z,98167.47
2023-01-05T19:59:36.979Z,98199.34
2023-01-05T20:02:43.823Z,98213.41
2023-01-05T20:05:49.562Z,98195.09
2023-01-05T20:09:02.901Z,98192.53
2023-01-05T20:12:14.921Z,98234.44
2023-01-05T20:15:22.165Z,98204.09
2023-01-05T20:18:27.915Z,98217.38
2023-01-05T20:21:35.411Z,98214.91
2023-01-05T20:24:44.173Z,98233.41
2023-01-05T20:27:50.555Z,98229.03
2023-01-05T20:30:56.241Z,98241.50
2023-01-05T20:34:07.337Z,98280.81
2023-01-05T20:37:14.656Z,98252.19
2023-01-05T20:40:23.934Z,98266.19
2023-01-05T20:43:32.159Z,98277.75
2023-01-05T20:46:44.833Z,98293.69
2023-01-05T20:49:51.273Z,98283.19
2023-01-05T20:52:58.923Z,98302.09
2023-01-05T20:56:12.776Z,98300.03
2023-01-05T20:59:23.123Z,98301.72
2023-01-05T21:02:29.016Z,98308.28
2023-01-05T21:05:35.761Z,98309.88
2023-01-05T21:08:41.738Z,98316.53
2023-01-05T21:11:50.997Z,98339.91
2023-01-05T21:14:56.616Z,98346.75
2023-01-05T21:18:02.978Z,98355.53
2023-01-05T21:21:09.439Z,98370.44
2023-01-05T21:24:17.985Z,98275.78
2023-01-05T21:27:26.362Z,98352.69
2023-01-05T21:30:33.207Z,98355.06
2023-01-05T21:33:40.531Z,98360.38
2023-01-05T21:36:49.184Z,98376.00
2023-01-05T21:39:54.716Z,98367.88
2023-01-05T21:43:04.615Z,98375.00
2023-01-05T21:46:13.562Z,98354.00
2023-01-05T21:49:22.796Z,98380.56
2023-01-05T21:52:44.064Z,98377.25
2023-01-05T21:56:07.126Z,98376.38
2023-01-05T21:59:15.507Z,98378.88
2023-01-05T22:02:22.189Z,98402.81
2023-01-05T22:05:27.970Z,98379.66
2023-01-05T22:08:34.531Z,98386.88
2023-01-05T22:11:40.433Z,98409.88
2023-01-05T22:14:49.877Z,98401.28
2023-01-05T22:17:55.825Z,98407.94
2023-01-05T22:21:05.547Z,98411.81
2023-01-05T22:24:12.428Z,98414.84
2023-01-05T22:27:18.821Z,98417.63
2023-01-05T22:30:27.427Z,98411.97
2023-01-05T22:33:34.928Z,98424.13
2023-01-05T22:36:40.476Z,98430.59
2023-01-05T22:39:47.014Z,98450.66
2023-01-05T22:42:52.438Z,98459.19
2023-01-05T22:46:09.351Z,98453.81
2023-01-05T22:49:26.163Z,98458.47
2023-01-05T22:52:34.564Z,98469.91
2023-01-05T22:55:40.051Z,98487.94
2023-01-05T22:58:46.665Z,98480.66
2023-01-05T23:01:55.187Z,98499.59
2023-01-05T23:05:03.818Z,98483.41
2023-01-05T23:08:10.306Z,98477.38
2023-01-05T23:11:19.776Z,98481.66
2023-01-05T23:14:25.274Z,98499.59
2023-01-05T23:17:34.279Z,98502.63
2023-01-05T23:20:39.663Z,98494.13
2023-01-05T23:23:46.962Z,98523.34
2023-01-05T23:26:52.440Z,98525.69
2023-01-05T23:29:58.701Z,98520.31
2023-01-05T23:33:07.085Z,98513.16
2023-01-05T23:36:15.871Z,98525.50
2023-01-05T23:39:21.332Z,98556.09
2023-01-05T23:42:43.508Z,98526.59
2023-01-05T23:45:50.030Z,98524.13
2023-01-05T23:48:59.100Z,98526.84
2023-01-05T23:52:04.516Z,98538.72
2023-01-05T23:55:12.194Z,98529.66
2023-01-05T23:58:17.637Z,98530.44
